Time;durP1;ratioP1;P1;durP2;ratioP2;P2;SDS_P1;SDS_P2;PMS_P1;PMS_P2;Temp;Humidity;BMP_temperature;BMP_pressure;BME280_temperature;BME280_humidity;BME280_pressure;Samples;Min_cycle;Max_cycle;Signal;HPM_P1;HPM_P2
2023/09/17 00:01:17;;;;;;;11.32;7.20;;;19.30;99.20;;;;;;6240796;23;20130;-81
2023/09/17 00:04:03;;;;;;;10.13;7.40;;;19.30;99.30;;;;;;6242082;23;20016;-80
2023/09/17 00:06:50;;;;;;;9.10;6.70;;;19.30;99.40;;;;;;6240440;23;20015;-80
2023/09/17 00:09:37;;;;;;;8.98;6.65;;;19.20;99.40;;;;;;6238882;23;20074;-80
2023/09/17 00:12:23;;;;;;;10.95;7.85;;;19.20;99.50;;;;;;6239532;23;20014;-80
2023/09/17 00:15:09;;;;;;;11.13;6.75;;;19.20;99.60;;;;;;6242183;22;20408;-80
2023/09/17 00:17:55;;;;;;;9.82;6.88;;;19.20;99.70;;;;;;6239467;23;20400;-81
2023/09/17 00:20:41;;;;;;;9.30;6.63;;;19.10;99.70;;;;;;6240322;23;20453;-80
2023/09/17 00:23:27;;;;;;;9.98;7.00;;;19.10;99.80;;;;;;6241756;23;20063;-79
2023/09/17 00:26:13;;;;;;;7.78;6.40;;;19.10;99.80;;;;;;6240069;23;20464;-80
2023/09/17 00:29:00;;;;;;;9.65;6.22;;;19.10;99.80;;;;;;6243543;22;20008;-80
2023/09/17 00:31:46;;;;;;;12.05;7.05;;;19.10;99.80;;;;;;6241403;23;20012;-80
2023/09/17 00:34:32;;;;;;;9.38;6.10;;;19.00;99.80;;;;;;6243773;23;20082;-81
2023/09/17 00:37:18;;;;;;;10.82;7.45;;;19.00;99.70;;;;;;6239828;23;20035;-81
2023/09/17 00:40:06;;;;;;;8.40;6.07;;;19.00;99.80;;;;;;6241681;23;20035;-80
2023/09/17 00:42:52;;;;;;;8.27;6.45;;;19.00;99.80;;;;;;6241579;23;20466;-80
2023/09/17 00:45:40;;;;;;;10.10;7.05;;;19.00;99.90;;;;;;6243295;23;20018;-80
2023/09/17 00:48:27;;;;;;;10.05;6.38;;;19.00;99.90;;;;;;6242173;23;20346;-80
2023/09/17 00:51:13;;;;;;;8.73;5.95;;;18.90;99.90;;;;;;6240708;23;20012;-80
2023/09/17 00:53:59;;;;;;;8.23;6.28;;;18.90;99.90;;;;;;6243265;23;20014;-80
2023/09/17 00:56:45;;;;;;;9.48;6.80;;;18.90;99.90;;;;;;6240967;22;20401;-80
2023/09/17 00:59:31;;;;;;;9.27;5.88;;;18.90;99.90;;;;;;6243936;22;20404;-80
2023/09/17 01:02:20;;;;;;;9.18;6.88;;;18.90;99.90;;;;;;6242864;22;20011;-81
2023/09/17 01:05:06;;;;;;;10.73;7.22;;;18.80;99.90;;;;;;6242370;23;20012;-80
2023/09/17 01:07:53;;;;;;;10.95;6.63;;;18.80;99.90;;;;;;6240685;22;20035;-81
2023/09/17 01:10:39;;;;;;;8.80;5.93;;;18.80;99.90;;;;;;6242734;23;20012;-81
2023/09/17 01:13:26;;;;;;;9.10;7.03;;;18.80;99.90;;;;;;6241505;23;20008;-81
2023/09/17 01:16:12;;;;;;;7.93;5.43;;;18.80;99.90;;;;;;6243196;22;20602;-81
2023/09/17 01:18:59;;;;;;;10.35;5.95;;;18.80;99.90;;;;;;6243227;23;20480;-81
2023/09/17 01:21:52;;;;;;;8.82;6.90;;;18.80;99.90;;;;;;6217568;23;20342;-80
2023/09/17 01:25:06;;;;;;;9.10;6.03;;;18.70;99.90;;;;;;6243132;23;20327;-81
2023/09/17 01:27:52;;;;;;;8.55;5.63;;;18.70;99.90;;;;;;6240672;23;20464;-80
2023/09/17 01:30:42;;;;;;;11.75;5.57;;;18.70;99.90;;;;;;6242440;23;20079;-81
2023/09/17 01:33:29;;;;;;;8.25;6.15;;;18.70;99.90;;;;;;6240467;23;20350;-80
2023/09/17 01:36:21;;;;;;;8.25;5.95;;;18.60;99.90;;;;;;6240661;23;20017;-82
2023/09/17 01:39:22;;;;;;;7.80;5.95;;;18.60;99.90;;;;;;6241102;23;20020;-80
2023/09/17 01:45:51;;;;;;;7.00;5.65;;;18.60;99.90;;;;;;6242270;23;20004;-82
2023/09/17 01:48:38;;;;;;;8.02;6.00;;;18.50;99.90;;;;;;6241055;23;20455;-81
2023/09/17 01:51:25;;;;;;;7.95;5.25;;;18.50;99.90;;;;;;6240922;23;20008;-82
2023/09/17 01:54:11;;;;;;;8.73;5.97;;;18.50;99.90;;;;;;6241692;23;20066;-82
2023/09/17 01:56:57;;;;;;;9.07;5.90;;;18.50;99.90;;;;;;6240205;22;20066;-82
2023/09/17 01:59:43;;;;;;;10.32;5.57;;;18.50;99.90;;;;;;6220597;23;20070;-81
2023/09/17 02:02:28;;;;;;;6.97;4.97;;;18.50;99.90;;;;;;6243101;23;20016;-80
2023/09/17 02:05:20;;;;;;;6.80;5.47;;;18.50;99.90;;;;;;6240761;23;20008;-81
2023/09/17 02:08:06;;;;;;;8.90;6.25;;;18.50;99.90;;;;;;6243248;23;20036;-80
2023/09/17 02:10:52;;;;;;;9.73;5.95;;;18.40;99.90;;;;;;6242295;23;20351;-81
2023/09/17 02:13:38;;;;;;;8.00;6.10;;;18.40;99.90;;;;;;6241573;23;20327;-82
2023/09/17 02:16:24;;;;;;;7.35;5.82;;;18.40;99.90;;;;;;6242942;23;20012;-81
2023/09/17 02:19:10;;;;;;;8.63;6.10;;;18.30;99.90;;;;;;6218407;23;20024;-82
2023/09/17 02:21:57;;;;;;;12.00;8.57;;;18.30;99.90;;;;;;6240486;23;20043;-81
2023/09/17 02:24:45;;;;;;;12.15;6.95;;;18.30;99.90;;;;;;6240880;23;20349;-81
2023/09/17 02:27:31;;;;;;;12.55;8.02;;;18.30;99.90;;;;;;6239863;23;20019;-82
2023/09/17 02:30:17;;;;;;;12.30;8.95;;;18.20;99.90;;;;;;6239823;23;20008;-82
2023/09/17 02:33:03;;;;;;;13.50;10.00;;;18.30;99.90;;;;;;6222067;23;20012;-82
2023/09/17 02:35:50;;;;;;;10.38;6.82;;;18.20;99.90;;;;;;6219600;23;20050;-83
2023/09/17 02:38:36;;;;;;;9.30;6.78;;;18.20;99.90;;;;;;6240331;23;20441;-83
2023/09/17 02:41:22;;;;;;;8.73;6.22;;;18.20;99.90;;;;;;6240658;23;20334;-83
2023/09/17 02:44:08;;;;;;;13.07;7.18;;;18.20;99.90;;;;;;6240385;23;20327;-65
2023/09/17 02:46:54;;;;;;;7.90;5.97;;;18.20;99.90;;;;;;6241451;23;20031;-65
2023/09/17 02:49:40;;;;;;;8.25;5.47;;;18.20;99.90;;;;;;6241341;23;20008;-65
2023/09/17 02:52:26;;;;;;;11.27;6.78;;;18.20;99.90;;;;;;6238826;23;20012;-66
2023/09/17 02:55:13;;;;;;;8.35;6.13;;;18.20;99.90;;;;;;6239916;22;20082;-66
2023/09/17 02:57:59;;;;;;;21.85;6.97;;;18.10;99.90;;;;;;6238881;23;20059;-65
2023/09/17 03:00:45;;;;;;;7.88;6.35;;;18.10;99.90;;;;;;6241666;23;20012;-65
2023/09/17 03:03:30;;;;;;;8.98;6.22;;;18.10;99.90;;;;;;6239889;23;20016;-65
2023/09/17 03:06:16;;;;;;;9.40;6.60;;;18.10;99.90;;;;;;6242268;22;20087;-65
2023/09/17 03:09:09;;;;;;;8.57;6.45;;;18.10;99.90;;;;;;6241089;22;20028;-65
2023/09/17 03:11:55;;;;;;;8.40;6.72;;;18.10;99.90;;;;;;6240382;23;20001;-65
2023/09/17 03:14:41;;;;;;;8.98;6.65;;;18.10;99.90;;;;;;6240271;23;20047;-65
2023/09/17 03:17:27;;;;;;;10.57;7.68;;;18.10;99.90;;;;;;6238899;23;20018;-65
2023/09/17 03:20:14;;;;;;;8.90;6.82;;;18.10;99.90;;;;;;6239339;23;20012;-65
2023/09/17 03:23:04;;;;;;;9.85;6.35;;;18.10;99.90;;;;;;6220320;23;20004;-64
2023/09/17 03:25:50;;;;;;;9.60;7.53;;;18.10;99.90;;;;;;6239087;23;20449;-64
2023/09/17 03:28:36;;;;;;;8.63;6.65;;;18.00;99.90;;;;;;6218317;23;20011;-64
2023/09/17 03:31:23;;;;;;;10.18;6.90;;;18.00;99.90;;;;;;6241659;22;20039;-64
2023/09/17 03:34:09;;;;;;;9.85;6.97;;;18.00;99.90;;;;;;6239609;23;20485;-65
2023/09/17 03:36:55;;;;;;;9.07;6.50;;;18.00;99.90;;;;;;6238178;23;20319;-65
2023/09/17 03:39:43;;;;;;;8.32;6.03;;;18.00;99.90;;;;;;6239316;23;20020;-64
2023/09/17 03:42:29;;;;;;;11.18;7.80;;;18.00;99.90;;;;;;6238876;23;20020;-65
2023/09/17 03:45:15;;;;;;;11.02;7.72;;;18.00;99.90;;;;;;6241027;23;20043;-64
2023/09/17 03:48:01;;;;;;;11.68;7.57;;;18.00;99.90;;;;;;6239394;23;20008;-65
2023/09/17 03:50:47;;;;;;;11.80;7.22;;;18.00;99.90;;;;;;6240707;22;20023;-65
2023/09/17 03:53:34;;;;;;;11.70;8.18;;;18.00;99.90;;;;;;6239626;23;20089;-65
2023/09/17 03:56:20;;;;;;;9.65;7.07;;;18.00;99.90;;;;;;6239382;22;20016;-65
2023/09/17 03:59:06;;;;;;;8.23;6.07;;;18.00;99.90;;;;;;6241461;22;20024;-66
2023/09/17 04:01:52;;;;;;;9.20;6.68;;;18.00;99.90;;;;;;6243217;23;20024;-65
2023/09/17 04:04:38;;;;;;;8.63;7.03;;;18.00;99.90;;;;;;6244666;22;20039;-65
2023/09/17 04:07:25;;;;;;;8.48;6.05;;;18.00;99.90;;;;;;6242868;23;20075;-65
2023/09/17 04:10:12;;;;;;;9.77;7.40;;;18.00;99.90;;;;;;6212581;23;20556;-65
2023/09/17 04:12:59;;;;;;;9.10;7.10;;;18.00;99.90;;;;;;6209816;23;20009;-65
2023/09/17 04:15:45;;;;;;;8.98;6.95;;;18.00;99.90;;;;;;6209488;23;20075;-65
2023/09/17 04:18:32;;;;;;;10.00;6.68;;;17.90;99.90;;;;;;6210520;23;20446;-64
2023/09/17 04:21:18;;;;;;;10.20;6.75;;;17.90;99.90;;;;;;6209500;23;20058;-65
2023/09/17 04:24:05;;;;;;;9.80;6.82;;;17.90;99.90;;;;;;6209314;23;20108;-65
2023/09/17 04:26:52;;;;;;;9.82;6.53;;;17.90;99.90;;;;;;6186931;23;20013;-64
2023/09/17 04:29:38;;;;;;;11.27;7.80;;;17.90;99.90;;;;;;6210136;23;20009;-64
2023/09/17 04:32:24;;;;;;;10.40;6.85;;;17.90;99.90;;;;;;6210500;23;20012;-64
2023/09/17 04:35:15;;;;;;;9.23;6.25;;;17.80;99.90;;;;;;6210769;23;20012;-64
2023/09/17 04:38:01;;;;;;;10.15;7.13;;;17.80;99.90;;;;;;6210229;23;20019;-64
2023/09/17 04:40:47;;;;;;;10.05;6.85;;;17.80;99.90;;;;;;6209450;23;20015;-65
2023/09/17 04:43:33;;;;;;;8.02;6.38;;;17.80;99.90;;;;;;6209575;23;20013;-64
2023/09/17 04:46:19;;;;;;;8.88;6.35;;;17.70;99.90;;;;;;6209076;23;20012;-64
2023/09/17 04:49:05;;;;;;;10.07;7.30;;;17.70;99.90;;;;;;6210161;23;20009;-64
2023/09/17 04:51:51;;;;;;;8.35;6.28;;;17.80;99.90;;;;;;6210624;23;20047;-64
2023/09/17 04:54:40;;;;;;;10.35;7.35;;;17.70;99.90;;;;;;6210157;23;20078;-64
2023/09/17 04:57:26;;;;;;;9.07;7.10;;;17.70;99.90;;;;;;6210074;23;20044;-65
2023/09/17 05:00:12;;;;;;;9.88;7.03;;;17.70;99.90;;;;;;6208691;23;20016;-64
2023/09/17 05:02:59;;;;;;;8.88;7.07;;;17.70;99.90;;;;;;6210103;23;20012;-64
2023/09/17 05:05:46;;;;;;;8.88;6.63;;;17.70;99.90;;;;;;6210076;23;20067;-65
2023/09/17 05:08:32;;;;;;;10.35;7.97;;;17.70;99.90;;;;;;6208557;23;20066;-65
2023/09/17 05:11:18;;;;;;;11.50;7.50;;;17.70;99.90;;;;;;6211043;23;20106;-64
2023/09/17 05:14:04;;;;;;;9.32;6.95;;;17.70;99.90;;;;;;6212704;23;20039;-65
2023/09/17 05:16:49;;;;;;;11.50;7.10;;;17.70;99.90;;;;;;6211768;23;20036;-78
2023/09/17 05:19:35;;;;;;;9.65;6.97;;;17.70;99.90;;;;;;6211576;23;20074;-78
2023/09/17 05:22:21;;;;;;;9.95;7.03;;;17.70;99.90;;;;;;6211450;23;20084;-78
2023/09/17 05:25:08;;;;;;;11.05;7.18;;;17.70;99.90;;;;;;6211310;23;20091;-77
2023/09/17 05:27:54;;;;;;;9.07;6.50;;;17.80;99.90;;;;;;6212945;23;20020;-78
2023/09/17 05:30:40;;;;;;;9.57;6.93;;;17.80;99.90;;;;;;6211139;23;20016;-79
2023/09/17 05:33:26;;;;;;;11.00;7.22;;;17.80;99.90;;;;;;6190464;23;20338;-65
2023/09/17 05:36:12;;;;;;;14.43;7.82;;;17.90;99.90;;;;;;6211385;23;20031;-69
2023/09/17 05:38:58;;;;;;;16.35;8.57;;;17.90;99.90;;;;;;6210845;23;20017;-67
2023/09/17 05:41:44;;;;;;;11.15;7.22;;;17.90;99.90;;;;;;6210442;23;20017;-67
2023/09/17 05:44:30;;;;;;;9.38;7.38;;;17.90;99.90;;;;;;6212749;23;20009;-67
2023/09/17 05:47:16;;;;;;;12.25;9.10;;;18.00;99.90;;;;;;6213540;23;20359;-67
2023/09/17 05:50:03;;;;;;;9.75;7.75;;;18.00;99.90;;;;;;6213707;23;20087;-67
2023/09/17 05:52:49;;;;;;;11.40;8.23;;;18.10;99.90;;;;;;6211546;23;20036;-67
2023/09/17 05:55:35;;;;;;;10.43;6.97;;;18.10;99.90;;;;;;6211853;23;20084;-67
2023/09/17 05:58:21;;;;;;;9.75;7.05;;;18.10;99.90;;;;;;6210308;23;20020;-68
2023/09/17 06:01:07;;;;;;;11.02;7.40;;;18.20;99.90;;;;;;6209875;23;20012;-67
2023/09/17 06:03:53;;;;;;;8.88;7.20;;;18.20;99.90;;;;;;6210179;23;20442;-67
2023/09/17 06:06:39;;;;;;;8.93;6.90;;;18.30;99.90;;;;;;6209939;23;20135;-68
2023/09/17 06:09:24;;;;;;;10.15;6.55;;;18.30;99.90;;;;;;6231961;23;20096;-68
2023/09/17 06:12:12;;;;;;;9.45;6.18;;;18.30;99.90;;;;;;6241411;23;20078;-68
2023/09/17 06:14:57;;;;;;;9.30;6.07;;;18.40;99.90;;;;;;6240252;23;20080;-68
2023/09/17 06:17:44;;;;;;;8.82;6.57;;;18.50;99.90;;;;;;6242043;22;20074;-68
2023/09/17 06:20:30;;;;;;;9.75;7.10;;;18.50;99.90;;;;;;6241565;22;20004;-68
2023/09/17 06:23:16;;;;;;;8.82;6.55;;;18.60;99.90;;;;;;6241168;23;20557;-68
2023/09/17 06:26:04;;;;;;;8.93;6.85;;;18.60;99.90;;;;;;6240771;23;20043;-68
2023/09/17 06:28:50;;;;;;;10.80;7.60;;;18.60;99.90;;;;;;6240327;23;20040;-68
2023/09/17 06:31:36;;;;;;;12.18;7.13;;;18.60;99.90;;;;;;6241879;23;20004;-69
2023/09/17 06:34:22;;;;;;;9.43;7.20;;;18.70;99.90;;;;;;6241196;23;20354;-68
2023/09/17 06:37:08;;;;;;;11.55;7.25;;;18.70;99.90;;;;;;6239078;23;20008;-68
2023/09/17 06:39:54;;;;;;;9.70;7.43;;;18.70;99.90;;;;;;6240932;23;20024;-68
2023/09/17 06:42:40;;;;;;;12.25;7.38;;;18.80;99.90;;;;;;6240241;23;20341;-69
2023/09/17 06:45:26;;;;;;;10.00;7.25;;;18.80;99.90;;;;;;6241124;23;20046;-68
2023/09/17 06:48:12;;;;;;;10.23;6.47;;;18.90;99.90;;;;;;6240655;23;20004;-67
2023/09/17 06:50:58;;;;;;;9.70;7.65;;;18.90;99.90;;;;;;6240906;23;20019;-68
2023/09/17 06:53:44;;;;;;;11.15;7.93;;;19.00;99.90;;;;;;6240734;23;20012;-68
2023/09/17 06:56:30;;;;;;;9.10;6.90;;;19.10;99.90;;;;;;6241342;22;20445;-68
2023/09/17 06:59:16;;;;;;;11.73;7.75;;;19.10;99.90;;;;;;6240513;23;20020;-69
2023/09/17 07:02:02;;;;;;;11.32;7.15;;;19.10;99.90;;;;;;6240395;23;20019;-68
2023/09/17 07:04:48;;;;;;;10.10;6.63;;;19.20;99.90;;;;;;6241459;23;20012;-68
2023/09/17 08:54:17;;;;;;;7.82;5.70;;;21.80;99.90;;;;;;6242569;23;20062;-66
2023/09/17 08:57:05;;;;;;;8.68;6.22;;;21.90;99.90;;;;;;6119391;23;20014;-67
2023/09/17 09:00:08;;;;;;;10.07;6.68;;;22.00;99.90;;;;;;6117731;23;20064;-67
2023/09/17 09:02:59;;;;;;;12.38;6.78;;;22.10;99.80;;;;;;6117976;23;20014;-66
2023/09/17 09:05:47;;;;;;;9.05;6.07;;;22.20;99.70;;;;;;6149457;23;20049;-67
2023/09/17 09:08:34;;;;;;;9.38;6.18;;;22.20;99.60;;;;;;6150866;23;20010;-65
2023/09/17 09:11:22;;;;;;;8.43;6.38;;;22.30;99.60;;;;;;6149802;23;20005;-66
2023/09/17 09:14:08;;;;;;;9.20;6.28;;;22.30;99.30;;;;;;6149686;23;20044;-66
2023/09/17 09:16:54;;;;;;;9.25;5.60;;;22.40;99.20;;;;;;6150277;23;20005;-66
2023/09/17 09:19:40;;;;;;;7.68;5.28;;;22.50;99.10;;;;;;6148837;23;20018;-66
2023/09/17 09:22:27;;;;;;;6.63;5.35;;;22.50;99.00;;;;;;6149873;23;20081;-66
2023/09/17 09:25:14;;;;;;;9.32;5.93;;;22.60;98.90;;;;;;6148920;23;20447;-66
2023/09/17 09:28:04;;;;;;;8.82;6.25;;;22.60;98.80;;;;;;6149544;23;20014;-67
2023/09/17 09:30:51;;;;;;;10.13;5.55;;;22.70;98.80;;;;;;6150924;23;20080;-67
2023/09/17 09:33:37;;;;;;;7.80;5.35;;;22.80;98.80;;;;;;6218712;23;20008;-66
2023/09/17 09:36:26;;;;;;;7.20;4.80;;;22.80;98.70;;;;;;6242924;23;20513;-66
2023/09/17 09:39:15;;;;;;;6.70;5.45;;;22.90;98.80;;;;;;6239321;23;20016;-66
2023/09/17 09:42:06;;;;;;;7.00;5.28;;;23.00;98.30;;;;;;6241722;23;20078;-66
2023/09/17 09:44:53;;;;;;;7.88;5.38;;;23.00;98.30;;;;;;6240009;23;20016;-65
2023/09/17 09:47:39;;;;;;;8.30;5.00;;;23.10;98.10;;;;;;6240247;23;20058;-65
2023/09/17 09:50:31;;;;;;;10.00;4.43;;;23.20;97.70;;;;;;6220605;23;20018;-65
2023/09/17 09:53:17;;;;;;;5.57;4.47;;;23.30;97.40;;;;;;6207181;23;20024;-65
2023/09/17 09:56:04;;;;;;;5.80;4.53;;;23.40;97.30;;;;;;6211276;23;20012;-65
2023/09/17 09:58:50;;;;;;;7.47;4.97;;;23.40;97.10;;;;;;6211453;23;20021;-66
2023/09/17 10:01:36;;;;;;;7.53;4.72;;;23.40;97.20;;;;;;6212560;23;20011;-66
2023/09/17 10:04:23;;;;;;;7.88;4.75;;;23.50;97.00;;;;;;6210560;23;20071;-66
2023/09/17 10:07:09;;;;;;;6.25;4.38;;;23.60;96.70;;;;;;6209907;23;20062;-65
2023/09/17 10:09:57;;;;;;;8.10;4.18;;;23.70;96.50;;;;;;6211042;23;20013;-66
2023/09/17 10:12:43;;;;;;;7.78;4.63;;;23.80;96.50;;;;;;6210915;23;20007;-66
2023/09/17 10:15:30;;;;;;;8.23;3.95;;;23.90;96.70;;;;;;6210215;23;20012;-65
2023/09/17 10:18:18;;;;;;;4.95;3.90;;;24.00;96.30;;;;;;6211571;23;20023;-65
2023/09/17 10:21:05;;;;;;;6.70;4.60;;;24.00;95.80;;;;;;6201276;23;20070;-64
2023/09/17 10:23:53;;;;;;;5.60;4.47;;;24.10;95.30;;;;;;6210095;23;20044;-65
2023/09/17 10:26:42;;;;;;;6.57;4.43;;;24.20;95.10;;;;;;6209629;23;20393;-64
2023/09/17 10:29:29;;;;;;;5.13;4.13;;;24.20;94.80;;;;;;6210380;23;20019;-65
2023/09/17 10:32:18;;;;;;;5.22;3.58;;;24.30;94.80;;;;;;6212301;23;20015;-65
2023/09/17 10:35:05;;;;;;;6.28;4.40;;;24.30;94.30;;;;;;6210020;23;20880;-65
2023/09/17 10:37:53;;;;;;;9.30;3.92;;;24.40;94.60;;;;;;6210760;23;20031;-65
2023/09/17 10:40:39;;;;;;;5.03;3.55;;;24.50;94.30;;;;;;6210587;23;20099;-65
2023/09/17 10:43:26;;;;;;;6.70;3.53;;;24.60;94.20;;;;;;6212869;23;20087;-65
2023/09/17 10:46:13;;;;;;;7.60;4.28;;;24.70;94.00;;;;;;6209783;23;20533;-65
2023/09/17 10:49:00;;;;;;;4.88;3.72;;;24.80;94.00;;;;;;6211185;23;20035;-65
2023/09/17 10:51:48;;;;;;;7.22;3.88;;;24.90;93.30;;;;;;6188320;23;20074;-65
2023/09/17 10:54:34;;;;;;;7.60;4.13;;;24.90;93.30;;;;;;6210124;23;20176;-65
2023/09/17 10:57:27;;;;;;;6.75;3.67;;;24.90;92.90;;;;;;6208086;23;20129;-65
2023/09/17 11:00:17;;;;;;;6.07;4.03;;;25.00;92.60;;;;;;6209067;23;20082;-65
2023/09/17 11:03:04;;;;;;;10.95;3.85;;;25.00;92.40;;;;;;6211080;23;20497;-65
2023/09/17 11:05:53;;;;;;;5.15;3.80;;;25.00;92.40;;;;;;6210077;23;20642;-65
2023/09/17 11:08:41;;;;;;;6.88;4.57;;;25.10;92.10;;;;;;6210898;23;20493;-65
2023/09/17 11:11:30;;;;;;;6.82;4.25;;;25.10;92.30;;;;;;6209684;23;20036;-65
2023/09/17 11:14:16;;;;;;;5.85;3.85;;;25.20;92.20;;;;;;6210613;23;20024;-65
2023/09/17 11:17:04;;;;;;;5.65;3.90;;;25.30;92.00;;;;;;6208479;23;20032;-65
2023/09/17 11:19:50;;;;;;;7.30;3.92;;;25.40;91.90;;;;;;6208672;23;20027;-66
2023/09/17 11:22:39;;;;;;;5.75;3.17;;;25.50;91.40;;;;;;6208101;23;20096;-66
2023/09/17 11:25:34;;;;;;;4.45;3.40;;;25.50;91.10;;;;;;6208768;23;20059;-67
2023/09/17 11:28:19;;;;;;;;;;;25.60;91.10;;;;;;6209557;23;20074;-66
2023/09/17 11:31:09;;;;;;;4.88;3.53;;;25.60;91.80;;;;;;6210358;23;19900;-66
2023/09/17 11:33:55;;;;;;;4.07;3.08;;;25.60;91.00;;;;;;6210655;23;20008;-65
2023/09/17 11:36:41;;;;;;;5.00;3.35;;;25.60;91.00;;;;;;6209572;23;20052;-66
2023/09/17 11:39:27;;;;;;;4.65;3.28;;;25.70;90.90;;;;;;6207733;23;20031;-65
2023/09/17 11:42:13;;;;;;;4.60;3.65;;;25.80;90.80;;;;;;6209938;23;20001;-67
2023/09/17 11:45:00;;;;;;;5.00;3.63;;;25.80;90.90;;;;;;6206711;23;20391;-66
2023/09/17 11:47:47;;;;;;;5.35;4.07;;;25.90;90.50;;;;;;6209928;23;20015;-66
2023/09/17 11:50:33;;;;;;;4.32;3.38;;;25.90;90.20;;;;;;6209765;23;20014;-66
2023/09/17 11:53:19;;;;;;;5.63;3.33;;;26.00;90.00;;;;;;6210725;23;20029;-66
2023/09/17 11:56:05;;;;;;;6.25;3.45;;;26.10;90.00;;;;;;6209117;23;20427;-66
2023/09/17 11:59:02;;;;;;;5.60;3.15;;;26.10;89.90;;;;;;6207970;23;20025;-66
2023/09/17 12:01:52;;;;;;;5.13;3.60;;;26.20;90.00;;;;;;6208698;23;20012;-66
2023/09/17 12:04:38;;;;;;;6.10;3.47;;;26.20;89.20;;;;;;6208140;23;20139;-66
2023/09/17 12:07:25;;;;;;;4.22;3.10;;;26.30;88.60;;;;;;6207671;23;20171;-66
2023/09/17 12:10:11;;;;;;;5.63;3.55;;;26.20;88.10;;;;;;6209391;23;20371;-66
2023/09/17 12:12:59;;;;;;;4.13;3.08;;;26.30;88.00;;;;;;6210272;23;20012;-65
2023/09/17 12:15:45;;;;;;;5.13;3.15;;;26.30;86.80;;;;;;6209140;23;20320;-66
2023/09/17 12:18:31;;;;;;;4.28;2.70;;;26.30;87.20;;;;;;6207146;23;20384;-65
2023/09/17 12:21:18;;;;;;;3.92;2.85;;;26.40;86.70;;;;;;6208737;23;20005;-66
2023/09/17 12:24:10;;;;;;;4.80;3.50;;;26.40;85.70;;;;;;6212443;23;20182;-65
2023/09/17 12:29:54;;;;;;;4.30;3.17;;;26.50;86.00;;;;;;6208652;23;20036;-66
2023/09/17 12:32:40;;;;;;;4.40;2.97;;;26.50;86.50;;;;;;6211542;23;20044;-66
2023/09/17 12:35:27;;;;;;;4.55;3.15;;;26.50;86.00;;;;;;6211596;23;20288;-66
2023/09/17 12:38:13;;;;;;;4.63;3.25;;;26.60;85.50;;;;;;6210438;23;20020;-65
2023/09/17 12:40:59;;;;;;;4.45;3.17;;;26.70;85.40;;;;;;6209691;23;20375;-67
2023/09/17 12:43:46;;;;;;;4.75;3.40;;;26.70;84.70;;;;;;6211714;23;20540;-65
2023/09/17 12:46:32;;;;;;;3.58;2.72;;;26.80;84.70;;;;;;6211202;23;20111;-66
2023/09/17 12:49:21;;;;;;;4.32;3.00;;;26.90;84.50;;;;;;6208938;23;20402;-69
2023/09/17 12:52:07;;;;;;;4.55;3.08;;;26.90;84.10;;;;;;6208302;23;20020;-66
2023/09/17 12:54:53;;;;;;;3.88;3.00;;;26.90;84.50;;;;;;6241774;22;20153;-66
2023/09/17 12:57:40;;;;;;;6.32;3.00;;;27.00;85.30;;;;;;6242386;23;20043;-67
2023/09/17 13:00:26;;;;;;;3.90;3.00;;;27.00;84.50;;;;;;6240017;23;20020;-66
2023/09/17 13:03:14;;;;;;;4.10;3.10;;;27.00;83.90;;;;;;6241424;23;20012;-66
2023/09/17 13:06:01;;;;;;;6.10;3.30;;;27.00;83.00;;;;;;6241398;23;20008;-66
2023/09/17 13:08:48;;;;;;;5.60;3.38;;;27.10;83.20;;;;;;6239114;23;20019;-67
2023/09/17 13:11:34;;;;;;;6.72;3.53;;;27.10;82.90;;;;;;6241475;23;20036;-66
2023/09/17 13:14:20;;;;;;;4.57;3.38;;;27.00;82.70;;;;;;6241491;23;20471;-66
2023/09/17 13:17:06;;;;;;;4.97;3.33;;;27.10;83.10;;;;;;6241744;23;20158;-66
2023/09/17 13:19:52;;;;;;;5.28;3.53;;;27.00;83.10;;;;;;6242944;23;20024;-66
2023/09/17 13:22:39;;;;;;;6.32;3.72;;;27.00;82.90;;;;;;6241275;23;20008;-66
2023/09/17 13:25:25;;;;;;;4.95;2.97;;;27.10;83.10;;;;;;6238887;23;20128;-66
2023/09/17 13:28:17;;;;;;;4.88;3.45;;;27.10;83.20;;;;;;6241843;23;20016;-68
2023/09/17 13:31:07;;;;;;;5.43;2.97;;;27.10;83.10;;;;;;6217414;23;20389;-67
2023/09/17 13:33:55;;;;;;;4.38;2.80;;;27.20;83.10;;;;;;6242069;23;20012;-67
2023/09/17 13:36:41;;;;;;;4.88;3.33;;;27.20;82.00;;;;;;6240233;23;20040;-67
2023/09/17 13:39:27;;;;;;;4.25;3.17;;;27.20;82.60;;;;;;6240996;23;20020;-68
2023/09/17 13:42:14;;;;;;;5.53;3.17;;;27.30;82.70;;;;;;6241194;23;20342;-66
2023/09/17 13:45:00;;;;;;;3.30;2.53;;;27.30;81.70;;;;;;6240705;23;20146;-67
2023/09/17 13:47:46;;;;;;;3.80;2.67;;;27.30;81.10;;;;;;6218896;23;20466;-67
2023/09/17 13:50:33;;;;;;;3.95;2.97;;;27.30;80.20;;;;;;6241305;23;20159;-69
2023/09/17 13:53:19;;;;;;;3.78;2.92;;;27.30;80.60;;;;;;6242496;23;20417;-70
2023/09/17 13:56:06;;;;;;;3.75;2.60;;;27.40;80.50;;;;;;6239669;22;20070;-72
2023/09/17 13:58:52;;;;;;;4.63;3.25;;;27.40;80.70;;;;;;6239701;23;20024;-70
2023/09/17 14:01:40;;;;;;;4.88;3.08;;;27.40;80.90;;;;;;6238427;23;20012;-69
2023/09/17 14:04:26;;;;;;;5.40;3.30;;;27.40;80.20;;;;;;6241115;23;20345;-69
2023/09/17 14:07:12;;;;;;;4.15;2.92;;;27.40;79.90;;;;;;6241102;23;20081;-69
2023/09/17 14:09:58;;;;;;;4.00;3.00;;;27.50;79.70;;;;;;6241355;23;20453;-69
2023/09/17 14:12:44;;;;;;;5.43;2.67;;;27.50;79.40;;;;;;6216017;23;20345;-69
2023/09/17 14:15:33;;;;;;;3.22;2.70;;;27.50;79.20;;;;;;6239782;23;20078;-69
2023/09/17 14:18:18;;;;;;;3.55;2.40;;;27.60;78.20;;;;;;6239904;23;20436;-70
2023/09/17 14:21:05;;;;;;;3.25;2.22;;;27.70;77.70;;;;;;6241572;23;20388;-70
2023/09/17 14:23:51;;;;;;;2.53;1.92;;;27.80;77.70;;;;;;6242230;23;20198;-71
2023/09/17 14:26:37;;;;;;;3.75;2.53;;;27.90;78.10;;;;;;6240930;23;20453;-71
2023/09/17 14:29:23;;;;;;;4.00;2.83;;;28.00;77.50;;;;;;6241884;23;20079;-71
2023/09/17 14:32:09;;;;;;;3.35;2.60;;;28.20;77.00;;;;;;6240521;23;20513;-71
2023/09/17 14:34:55;;;;;;;6.53;2.75;;;28.20;77.10;;;;;;6241036;23;20012;-70
2023/09/17 14:37:41;;;;;;;4.28;2.67;;;28.30;76.00;;;;;;6240053;23;20342;-69
2023/09/17 14:40:27;;;;;;;8.75;5.72;;;28.30;75.30;;;;;;6239182;23;20024;-69
2023/09/17 14:43:13;;;;;;;7.43;5.38;;;28.30;75.10;;;;;;6240859;23;20008;-69
2023/09/17 14:45:58;;;;;;;11.38;8.57;;;28.40;75.50;;;;;;6219705;23;20012;-69
2023/09/17 14:48:44;;;;;;;5.75;3.58;;;28.40;74.20;;;;;;6240122;23;20023;-70
2023/09/17 14:51:30;;;;;;;4.18;3.00;;;28.50;74.90;;;;;;6217993;23;20445;-70
2023/09/17 14:54:16;;;;;;;5.53;2.85;;;28.50;74.60;;;;;;6241286;23;20364;-70
2023/09/17 14:57:02;;;;;;;3.80;2.60;;;28.60;74.50;;;;;;6240880;22;20077;-70
2023/09/17 14:59:48;;;;;;;6.38;2.97;;;28.60;74.80;;;;;;6240416;23;20020;-70
2023/09/17 15:02:34;;;;;;;3.72;2.80;;;28.60;74.60;;;;;;6240293;23;20012;-72
2023/09/17 15:05:20;;;;;;;5.35;3.03;;;28.60;74.40;;;;;;6238794;23;20008;-70
2023/09/17 15:08:07;;;;;;;5.60;2.78;;;28.70;74.20;;;;;;6240133;23;20454;-70
2023/09/17 15:10:53;;;;;;;4.60;2.80;;;28.70;73.90;;;;;;6240119;23;20478;-70
2023/09/17 15:13:39;;;;;;;7.85;3.42;;;28.60;73.90;;;;;;6240610;23;20081;-70
2023/09/17 15:16:25;;;;;;;5.45;3.50;;;28.70;74.20;;;;;;6239514;23;20010;-70
2023/09/17 15:19:11;;;;;;;5.88;2.95;;;28.70;74.30;;;;;;6241206;23;20342;-70
2023/09/17 15:21:57;;;;;;;5.95;4.32;;;28.70;74.20;;;;;;6240422;23;20008;-70
2023/09/17 15:24:43;;;;;;;5.15;3.25;;;28.70;73.90;;;;;;6240076;23;20493;-70
2023/09/17 15:27:29;;;;;;;5.10;3.47;;;28.70;73.70;;;;;;6241183;23;20012;-70
2023/09/17 15:30:15;;;;;;;7.22;4.00;;;28.70;73.70;;;;;;6240523;23;20095;-70
2023/09/17 15:33:01;;;;;;;6.57;4.32;;;28.70;73.80;;;;;;6240740;23;20099;-70
2023/09/17 15:35:47;;;;;;;10.20;7.43;;;28.70;73.50;;;;;;6240101;23;20008;-69
2023/09/17 15:38:33;;;;;;;5.57;3.90;;;28.70;73.60;;;;;;6240976;23;20019;-70
2023/09/17 15:41:19;;;;;;;6.13;4.70;;;28.70;73.50;;;;;;6240589;23;20023;-70
2023/09/17 15:44:06;;;;;;;5.18;3.85;;;28.70;73.70;;;;;;6238596;23;20008;-68
2023/09/17 15:46:53;;;;;;;7.25;4.75;;;28.70;73.60;;;;;;6239612;23;20016;-69
2023/09/17 15:49:40;;;;;;;6.47;4.07;;;28.60;73.50;;;;;;6238670;23;20431;-70
2023/09/17 15:52:26;;;;;;;4.88;3.47;;;28.60;73.60;;;;;;6240200;23;20020;-70
2023/09/17 15:55:13;;;;;;;7.38;4.72;;;28.60;73.70;;;;;;6241393;22;20024;-70
2023/09/17 15:57:59;;;;;;;6.18;4.55;;;28.60;74.00;;;;;;6241141;23;20015;-71
2023/09/17 16:00:45;;;;;;;12.52;8.18;;;28.50;74.10;;;;;;6242237;23;20000;-71
2023/09/17 16:03:31;;;;;;;6.70;4.75;;;28.50;74.30;;;;;;6242025;23;20098;-72
2023/09/17 16:06:22;;;;;;;6.85;4.53;;;28.40;74.30;;;;;;6242923;22;20011;-71
2023/09/17 16:09:10;;;;;;;21.67;16.38;;;28.40;74.60;;;;;;6242595;23;20441;-71
2023/09/17 16:11:56;;;;;;;15.20;9.75;;;28.30;74.50;;;;;;6242376;23;20036;-71
2023/09/17 16:14:42;;;;;;;30.05;20.05;;;28.30;74.20;;;;;;6242892;23;20013;-72
2023/09/17 16:17:28;;;;;;;23.60;16.30;;;28.20;74.30;;;;;;6242736;23;20004;-72
2023/09/17 16:20:14;;;;;;;29.40;20.30;;;28.20;74.50;;;;;;6240901;23;20408;-69